sensor_id;sensor_type;location;lat;lon;timestamp;P1;durP1;ratioP1;P2;durP2;ratioP2
19059;SDS011;9663;48.996;8.334;2023-03-01T00:01:31;7.55;;;3.13;;
19059;SDS011;9663;48.996;8.334;2023-03-01T00:03:57;6.43;;;3.13;;
19059;SDS011;9663;48.996;8.334;2023-03-01T00:06:24;6.95;;;3.20;;
19059;SDS011;9663;48.996;8.334;2023-03-01T00:08:51;8.30;;;3.47;;
19059;SDS011;9663;48.996;8.334;2023-03-01T00:11:27;6.13;;;2.67;;
19059;SDS011;9663;48.996;8.334;2023-03-01T00:13:56;5.97;;;2.78;;
19059;SDS011;9663;48.996;8.334;2023-03-01T00:16:30;7.47;;;3.17;;
19059;SDS011;9663;48.996;8.334;2023-03-01T00:18:59;7.13;;;3.10;;
19059;SDS011;9663;48.996;8.334;2023-03-01T00:21:26;5.82;;;2.45;;
19059;SDS011;9663;48.996;8.334;2023-03-01T00:23:52;6.95;;;2.92;;
19059;SDS011;9663;48.996;8.334;2023-03-01T00:26:19;6.53;;;2.88;;
19059;SDS011;9663;48.996;8.334;2023-03-01T00:28:48;6.78;;;2.88;;
19059;SDS011;9663;48.996;8.334;2023-03-01T00:31:18;5.88;;;2.85;;
19059;SDS011;9663;48.996;8.334;2023-03-01T00:33:48;7.10;;;2.90;;
19059;SDS011;9663;48.996;8.334;2023-03-01T00:36:22;5.82;;;2.65;;
19059;SDS011;9663;48.996;8.334;2023-03-01T00:38:50;4.68;;;2.30;;
19059;SDS011;9663;48.996;8.334;2023-03-01T00:41:17;5.90;;;2.75;;
19059;SDS011;9663;48.996;8.334;2023-03-01T00:43:45;6.72;;;3.00;;
19059;SDS011;9663;48.996;8.334;2023-03-01T00:46:15;6.00;;;2.65;;
19059;SDS011;9663;48.996;8.334;2023-03-01T00:48:45;5.30;;;2.53;;
19059;SDS011;9663;48.996;8.334;2023-03-01T00:51:12;7.68;;;2.80;;
19059;SDS011;9663;48.996;8.334;2023-03-01T00:53:47;7.10;;;3.05;;
19059;SDS011;9663;48.996;8.334;2023-03-01T00:56:17;7.38;;;3.03;;
19059;SDS011;9663;48.996;8.334;2023-03-01T00:58:43;6.40;;;3.08;;
19059;SDS011;9663;48.996;8.334;2023-03-01T01:01:09;6.80;;;2.78;;
19059;SDS011;9663;48.996;8.334;2023-03-01T01:03:48;6.72;;;3.00;;
19059;SDS011;9663;48.996;8.334;2023-03-01T01:06:18;6.35;;;3.10;;
19059;SDS011;9663;48.996;8.334;2023-03-01T01:08:50;6.43;;;2.97;;
19059;SDS011;9663;48.996;8.334;2023-03-01T01:11:18;6.68;;;3.38;;
19059;SDS011;9663;48.996;8.334;2023-03-01T01:13:45;6.22;;;3.17;;
19059;SDS011;9663;48.996;8.334;2023-03-01T01:16:12;6.53;;;2.63;;
19059;SDS011;9663;48.996;8.334;2023-03-01T01:18:39;5.78;;;2.65;;
19059;SDS011;9663;48.996;8.334;2023-03-01T01:21:12;6.60;;;2.97;;
19059;SDS011;9663;48.996;8.334;2023-03-01T01:23:43;5.55;;;2.30;;
19059;SDS011;9663;48.996;8.334;2023-03-01T01:26:14;7.10;;;2.80;;
19059;SDS011;9663;48.996;8.334;2023-03-01T01:28:44;6.60;;;3.05;;
19059;SDS011;9663;48.996;8.334;2023-03-01T01:31:13;5.75;;;2.50;;
19059;SDS011;9663;48.996;8.334;2023-03-01T01:33:39;6.53;;;2.90;;
19059;SDS011;9663;48.996;8.334;2023-03-01T01:36:05;6.85;;;2.97;;
19059;SDS011;9663;48.996;8.334;2023-03-01T01:38:33;5.60;;;2.88;;
19059;SDS011;9663;48.996;8.334;2023-03-01T01:41:00;6.38;;;2.92;;
19059;SDS011;9663;48.996;8.334;2023-03-01T01:43:27;6.90;;;2.55;;
19059;SDS011;9663;48.996;8.334;2023-03-01T01:45:59;5.72;;;2.78;;
19059;SDS011;9663;48.996;8.334;2023-03-01T01:48:40;6.18;;;2.72;;
19059;SDS011;9663;48.996;8.334;2023-03-01T01:51:13;7.20;;;2.90;;
19059;SDS011;9663;48.996;8.334;2023-03-01T01:53:44;6.15;;;2.72;;
19059;SDS011;9663;48.996;8.334;2023-03-01T01:56:18;5.65;;;2.80;;
19059;SDS011;9663;48.996;8.334;2023-03-01T01:58:45;7.13;;;2.75;;
19059;SDS011;9663;48.996;8.334;2023-03-01T02:01:12;5.60;;;2.67;;
19059;SDS011;9663;48.996;8.334;2023-03-01T02:03:39;6.13;;;2.70;;
19059;SDS011;9663;48.996;8.334;2023-03-01T02:06:19;7.03;;;2.95;;
19059;SDS011;9663;48.996;8.334;2023-03-01T02:08:59;6.65;;;2.72;;
19059;SDS011;9663;48.996;8.334;2023-03-01T02:11:30;6.20;;;3.03;;
19059;SDS011;9663;48.996;8.334;2023-03-01T02:13:57;6.47;;;2.80;;
19059;SDS011;9663;48.996;8.334;2023-03-01T02:16:23;6.35;;;2.63;;
19059;SDS011;9663;48.996;8.334;2023-03-01T02:18:51;4.93;;;2.45;;
19059;SDS011;9663;48.996;8.334;2023-03-01T02:24:37;6.18;;;2.85;;
19059;SDS011;9663;48.996;8.334;2023-03-01T02:27:22;6.82;;;2.85;;
19059;SDS011;9663;48.996;8.334;2023-03-01T02:30:01;5.82;;;2.65;;
19059;SDS011;9663;48.996;8.334;2023-03-01T02:32:28;6.65;;;2.90;;
19059;SDS011;9663;48.996;8.334;2023-03-01T02:34:54;6.38;;;2.83;;
19059;SDS011;9663;48.996;8.334;2023-03-01T02:37:21;6.45;;;2.85;;
19059;SDS011;9663;48.996;8.334;2023-03-01T02:39:51;6.53;;;3.03;;
19059;SDS011;9663;48.996;8.334;2023-03-01T02:42:31;7.57;;;3.10;;
19059;SDS011;9663;48.996;8.334;2023-03-01T02:45:05;7.30;;;3.10;;
19059;SDS011;9663;48.996;8.334;2023-03-01T02:47:31;6.85;;;3.13;;
19059;SDS011;9663;48.996;8.334;2023-03-01T02:49:56;6.47;;;2.85;;
19059;SDS011;9663;48.996;8.334;2023-03-01T02:55:18;7.53;;;3.50;;
19059;SDS011;9663;48.996;8.334;2023-03-01T02:57:46;7.28;;;3.20;;
19059;SDS011;9663;48.996;8.334;2023-03-01T03:00:21;6.70;;;2.88;;
19059;SDS011;9663;48.996;8.334;2023-03-01T03:02:51;6.38;;;2.78;;
19059;SDS011;9663;48.996;8.334;2023-03-01T03:05:20;7.18;;;3.17;;
19059;SDS011;9663;48.996;8.334;2023-03-01T03:07:49;6.13;;;3.08;;
19059;SDS011;9663;48.996;8.334;2023-03-01T03:10:17;6.40;;;3.20;;
19059;SDS011;9663;48.996;8.334;2023-03-01T03:12:51;6.60;;;2.90;;
19059;SDS011;9663;48.996;8.334;2023-03-01T03:15:23;7.00;;;3.15;;
19059;SDS011;9663;48.996;8.334;2023-03-01T03:17:51;6.30;;;3.10;;
19059;SDS011;9663;48.996;8.334;2023-03-01T03:20:19;7.38;;;3.13;;
19059;SDS011;9663;48.996;8.334;2023-03-01T03:22:48;6.35;;;3.05;;
19059;SDS011;9663;48.996;8.334;2023-03-01T03:25:17;6.63;;;3.08;;
19059;SDS011;9663;48.996;8.334;2023-03-01T03:27:44;6.82;;;2.90;;
19059;SDS011;9663;48.996;8.334;2023-03-01T03:30:13;7.57;;;3.10;;
19059;SDS011;9663;48.996;8.334;2023-03-01T03:32:44;7.63;;;3.35;;
19059;SDS011;9663;48.996;8.334;2023-03-01T03:35:17;7.60;;;2.90;;
19059;SDS011;9663;48.996;8.334;2023-03-01T03:37:59;7.18;;;3.00;;
19059;SDS011;9663;48.996;8.334;2023-03-01T03:43:06;7.30;;;3.08;;
19059;SDS011;9663;48.996;8.334;2023-03-01T03:45:35;7.03;;;3.13;;
19059;SDS011;9663;48.996;8.334;2023-03-01T03:48:02;7.05;;;3.28;;
19059;SDS011;9663;48.996;8.334;2023-03-01T03:50:31;7.35;;;3.15;;
19059;SDS011;9663;48.996;8.334;2023-03-01T03:52:57;6.70;;;3.50;;
19059;SDS011;9663;48.996;8.334;2023-03-01T03:55:27;6.90;;;3.22;;
19059;SDS011;9663;48.996;8.334;2023-03-01T03:57:56;6.80;;;3.20;;
19059;SDS011;9663;48.996;8.334;2023-03-01T04:00:27;8.07;;;3.17;;
19059;SDS011;9663;48.996;8.334;2023-03-01T04:02:53;6.50;;;2.83;;
19059;SDS011;9663;48.996;8.334;2023-03-01T04:05:21;7.90;;;3.63;;
19059;SDS011;9663;48.996;8.334;2023-03-01T04:07:49;7.18;;;3.58;;
19059;SDS011;9663;48.996;8.334;2023-03-01T04:10:26;6.55;;;3.30;;
19059;SDS011;9663;48.996;8.334;2023-03-01T04:12:56;7.63;;;3.13;;
19059;SDS011;9663;48.996;8.334;2023-03-01T04:15:23;7.15;;;3.63;;
19059;SDS011;9663;48.996;8.334;2023-03-01T04:17:51;6.53;;;3.50;;
19059;SDS011;9663;48.996;8.334;2023-03-01T04:20:21;6.82;;;3.10;;
19059;SDS011;9663;48.996;8.334;2023-03-01T04:23:05;7.82;;;3.15;;
19059;SDS011;9663;48.996;8.334;2023-03-01T04:31:06;7.88;;;3.40;;
19059;SDS011;9663;48.996;8.334;2023-03-01T04:33:41;7.93;;;3.60;;
19059;SDS011;9663;48.996;8.334;2023-03-01T04:36:20;7.18;;;3.50;;
19059;SDS011;9663;48.996;8.334;2023-03-01T04:38:49;7.05;;;3.47;;
19059;SDS011;9663;48.996;8.334;2023-03-01T04:41:17;6.90;;;3.42;;
19059;SDS011;9663;48.996;8.334;2023-03-01T04:43:45;6.75;;;3.55;;
19059;SDS011;9663;48.996;8.334;2023-03-01T04:46:12;6.35;;;2.97;;
19059;SDS011;9663;48.996;8.334;2023-03-01T04:48:42;7.70;;;3.97;;
19059;SDS011;9663;48.996;8.334;2023-03-01T04:51:09;6.63;;;3.13;;
19059;SDS011;9663;48.996;8.334;2023-03-01T04:53:38;8.20;;;3.88;;
19059;SDS011;9663;48.996;8.334;2023-03-01T04:56:04;7.82;;;3.60;;
19059;SDS011;9663;48.996;8.334;2023-03-01T04:58:31;7.95;;;4.00;;
19059;SDS011;9663;48.996;8.334;2023-03-01T05:00:57;7.30;;;3.47;;
19059;SDS011;9663;48.996;8.334;2023-03-01T05:03:23;8.43;;;4.00;;
19059;SDS011;9663;48.996;8.334;2023-03-01T05:05:50;7.82;;;4.03;;
19059;SDS011;9663;48.996;8.334;2023-03-01T05:08:17;7.30;;;3.35;;
19059;SDS011;9663;48.996;8.334;2023-03-01T05:10:44;7.50;;;3.50;;
19059;SDS011;9663;48.996;8.334;2023-03-01T05:13:13;9.07;;;3.88;;
19059;SDS011;9663;48.996;8.334;2023-03-01T05:15:45;6.65;;;3.58;;
19059;SDS011;9663;48.996;8.334;2023-03-01T05:18:13;7.85;;;3.22;;
19059;SDS011;9663;48.996;8.334;2023-03-01T05:20:39;6.63;;;3.33;;
19059;SDS011;9663;48.996;8.334;2023-03-01T05:23:05;7.38;;;3.28;;
19059;SDS011;9663;48.996;8.334;2023-03-01T05:25:32;6.93;;;3.25;;
19059;SDS011;9663;48.996;8.334;2023-03-01T05:28:00;7.28;;;3.63;;
19059;SDS011;9663;48.996;8.334;2023-03-01T05:30:29;8.25;;;3.95;;
19059;SDS011;9663;48.996;8.334;2023-03-01T05:32:59;8.10;;;4.18;;
19059;SDS011;9663;48.996;8.334;2023-03-01T05:35:25;7.38;;;3.45;;
19059;SDS011;9663;48.996;8.334;2023-03-01T05:37:51;7.95;;;3.70;;
19059;SDS011;9663;48.996;8.334;2023-03-01T05:40:19;7.45;;;3.70;;
19059;SDS011;9663;48.996;8.334;2023-03-01T05:42:48;8.38;;;3.83;;
19059;SDS011;9663;48.996;8.334;2023-03-01T05:45:22;9.05;;;4.22;;
19059;SDS011;9663;48.996;8.334;2023-03-01T05:47:50;8.52;;;4.22;;
19059;SDS011;9663;48.996;8.334;2023-03-01T05:50:21;8.48;;;4.00;;
19059;SDS011;9663;48.996;8.334;2023-03-01T05:52:51;7.82;;;4.00;;
19059;SDS011;9663;48.996;8.334;2023-03-01T05:55:30;7.40;;;3.95;;
19059;SDS011;9663;48.996;8.334;2023-03-01T05:58:04;7.28;;;3.70;;
19059;SDS011;9663;48.996;8.334;2023-03-01T06:00:34;8.50;;;4.28;;
19059;SDS011;9663;48.996;8.334;2023-03-01T06:03:00;8.95;;;4.65;;
19059;SDS011;9663;48.996;8.334;2023-03-01T06:05:27;8.35;;;4.25;;
19059;SDS011;9663;48.996;8.334;2023-03-01T06:07:54;8.52;;;3.80;;
19059;SDS011;9663;48.996;8.334;2023-03-01T06:10:23;8.70;;;4.35;;
19059;SDS011;9663;48.996;8.334;2023-03-01T06:12:48;9.27;;;5.22;;
19059;SDS011;9663;48.996;8.334;2023-03-01T06:15:15;9.23;;;4.30;;
19059;SDS011;9663;48.996;8.334;2023-03-01T06:17:43;9.13;;;4.97;;
19059;SDS011;9663;48.996;8.334;2023-03-01T06:20:12;8.68;;;4.35;;
19059;SDS011;9663;48.996;8.334;2023-03-01T06:22:42;10.15;;;4.53;;
19059;SDS011;9663;48.996;8.334;2023-03-01T06:25:09;7.18;;;4.10;;
19059;SDS011;9663;48.996;8.334;2023-03-01T06:27:37;8.27;;;4.15;;
19059;SDS011;9663;48.996;8.334;2023-03-01T06:30:04;9.68;;;3.70;;
19059;SDS011;9663;48.996;8.334;2023-03-01T06:32:32;8.60;;;4.28;;
19059;SDS011;9663;48.996;8.334;2023-03-01T06:34:58;11.02;;;4.53;;
19059;SDS011;9663;48.996;8.334;2023-03-01T06:37:27;8.65;;;4.00;;
19059;SDS011;9663;48.996;8.334;2023-03-01T06:39:53;8.43;;;3.90;;
19059;SDS011;9663;48.996;8.334;2023-03-01T06:42:18;7.18;;;3.60;;
19059;SDS011;9663;48.996;8.334;2023-03-01T06:44:44;8.57;;;4.07;;
19059;SDS011;9663;48.996;8.334;2023-03-01T06:47:10;8.45;;;4.60;;
19059;SDS011;9663;48.996;8.334;2023-03-01T06:49:36;8.60;;;4.10;;
19059;SDS011;9663;48.996;8.334;2023-03-01T06:52:02;7.13;;;3.88;;
19059;SDS011;9663;48.996;8.334;2023-03-01T06:54:28;9.43;;;4.38;;
19059;SDS011;9663;48.996;8.334;2023-03-01T06:56:54;7.60;;;3.78;;
19059;SDS011;9663;48.996;8.334;2023-03-01T06:59:20;8.32;;;4.20;;
19059;SDS011;9663;48.996;8.334;2023-03-01T07:01:46;9.13;;;4.53;;
19059;SDS011;9663;48.996;8.334;2023-03-01T07:04:12;9.43;;;4.20;;
19059;SDS011;9663;48.996;8.334;2023-03-01T07:06:38;8.77;;;4.10;;
19059;SDS011;9663;48.996;8.334;2023-03-01T07:09:04;9.02;;;4.72;;
19059;SDS011;9663;48.996;8.334;2023-03-01T07:11:30;9.23;;;4.65;;
19059;SDS011;9663;48.996;8.334;2023-03-01T07:13:56;9.20;;;4.32;;
19059;SDS011;9663;48.996;8.334;2023-03-01T07:16:23;7.55;;;4.20;;
19059;SDS011;9663;48.996;8.334;2023-03-01T07:18:48;10.77;;;4.50;;
19059;SDS011;9663;48.996;8.334;2023-03-01T07:21:15;9.10;;;4.22;;
19059;SDS011;9663;48.996;8.334;2023-03-01T07:23:41;8.85;;;4.57;;
19059;SDS011;9663;48.996;8.334;2023-03-01T07:26:07;9.32;;;4.70;;
19059;SDS011;9663;48.996;8.334;2023-03-01T07:28:34;9.65;;;4.57;;
19059;SDS011;9663;48.996;8.334;2023-03-01T07:31:03;8.50;;;4.28;;
19059;SDS011;9663;48.996;8.334;2023-03-01T07:33:30;8.77;;;4.53;;
19059;SDS011;9663;48.996;8.334;2023-03-01T07:35:56;8.77;;;4.22;;
19059;SDS011;9663;48.996;8.334;2023-03-01T07:38:24;10.05;;;4.80;;
19059;SDS011;9663;48.996;8.334;2023-03-01T07:40:51;9.55;;;4.88;;
19059;SDS011;9663;48.996;8.334;2023-03-01T07:43:16;9.10;;;4.75;;
19059;SDS011;9663;48.996;8.334;2023-03-01T07:45:42;11.10;;;5.25;;
19059;SDS011;9663;48.996;8.334;2023-03-01T07:48:08;11.20;;;4.95;;
19059;SDS011;9663;48.996;8.334;2023-03-01T07:50:35;10.15;;;5.03;;
19059;SDS011;9663;48.996;8.334;2023-03-01T07:53:00;10.18;;;4.85;;
19059;SDS011;9663;48.996;8.334;2023-03-01T07:55:27;8.50;;;4.85;;
19059;SDS011;9663;48.996;8.334;2023-03-01T07:57:53;8.50;;;4.35;;
19059;SDS011;9663;48.996;8.334;2023-03-01T08:00:18;9.60;;;4.68;;
19059;SDS011;9663;48.996;8.334;2023-03-01T08:02:44;10.68;;;4.32;;
19059;SDS011;9663;48.996;8.334;2023-03-01T08:05:10;10.88;;;5.47;;
19059;SDS011;9663;48.996;8.334;2023-03-01T08:07:36;11.18;;;5.75;;
19059;SDS011;9663;48.996;8.334;2023-03-01T08:10:01;10.13;;;5.20;;
19059;SDS011;9663;48.996;8.334;2023-03-01T08:12:28;10.57;;;5.10;;
19059;SDS011;9663;48.996;8.334;2023-03-01T08:14:53;9.15;;;5.07;;
19059;SDS011;9663;48.996;8.334;2023-03-01T08:17:19;9.90;;;4.88;;
19059;SDS011;9663;48.996;8.334;2023-03-01T08:19:45;9.07;;;4.65;;
19059;SDS011;9663;48.996;8.334;2023-03-01T08:22:11;9.38;;;5.20;;
19059;SDS011;9663;48.996;8.334;2023-03-01T08:24:37;8.07;;;4.85;;
19059;SDS011;9663;48.996;8.334;2023-03-01T08:27:02;9.48;;;4.70;;
19059;SDS011;9663;48.996;8.334;2023-03-01T08:29:32;10.52;;;5.65;;
19059;SDS011;9663;48.996;8.334;2023-03-01T08:31:58;10.45;;;5.78;;
19059;SDS011;9663;48.996;8.334;2023-03-01T08:34:24;9.75;;;5.18;;
19059;SDS011;9663;48.996;8.334;2023-03-01T08:36:52;8.82;;;5.13;;
19059;SDS011;9663;48.996;8.334;2023-03-01T08:39:18;10.55;;;5.55;;
19059;SDS011;9663;48.996;8.334;2023-03-01T08:41:45;10.05;;;5.35;;
19059;SDS011;9663;48.996;8.334;2023-03-01T08:44:12;11.68;;;5.55;;
19059;SDS011;9663;48.996;8.334;2023-03-01T08:46:41;10.88;;;5.80;;
19059;SDS011;9663;48.996;8.334;2023-03-01T08:49:11;10.63;;;5.65;;
19059;SDS011;9663;48.996;8.334;2023-03-01T08:51:41;9.45;;;5.28;;
19059;SDS011;9663;48.996;8.334;2023-03-01T08:54:12;12.23;;;6.13;;
19059;SDS011;9663;48.996;8.334;2023-03-01T08:56:41;9.05;;;4.95;;
19059;SDS011;9663;48.996;8.334;2023-03-01T08:59:07;9.52;;;5.07;;
19059;SDS011;9663;48.996;8.334;2023-03-01T09:01:35;10.68;;;5.15;;
19059;SDS011;9663;48.996;8.334;2023-03-01T09:04:01;8.93;;;4.97;;
19059;SDS011;9663;48.996;8.334;2023-03-01T09:06:30;9.48;;;4.80;;
19059;SDS011;9663;48.996;8.334;2023-03-01T09:09:00;10.48;;;5.55;;
19059;SDS011;9663;48.996;8.334;2023-03-01T09:11:29;9.52;;;5.00;;
19059;SDS011;9663;48.996;8.334;2023-03-01T09:13:55;10.20;;;4.97;;
19059;SDS011;9663;48.996;8.334;2023-03-01T09:16:22;8.65;;;4.97;;
19059;SDS011;9663;48.996;8.334;2023-03-01T09:18:48;8.98;;;5.20;;
19059;SDS011;9663;48.996;8.334;2023-03-01T09:21:19;10.27;;;5.10;;
19059;SDS011;9663;48.996;8.334;2023-03-01T09:23:47;9.77;;;5.45;;
19059;SDS011;9663;48.996;8.334;2023-03-01T09:26:15;8.63;;;5.10;;
19059;SDS011;9663;48.996;8.334;2023-03-01T09:28:47;10.35;;;5.22;;
19059;SDS011;9663;48.996;8.334;2023-03-01T09:31:16;8.20;;;4.88;;
19059;SDS011;9663;48.996;8.334;2023-03-01T09:33:45;9.23;;;5.40;;
19059;SDS011;9663;48.996;8.334;2023-03-01T09:36:14;9.10;;;4.88;;
19059;SDS011;9663;48.996;8.334;2023-03-01T09:38:43;8.30;;;4.50;;
19059;SDS011;9663;48.996;8.334;2023-03-01T09:43:48;8.80;;;4.78;;
19059;SDS011;9663;48.996;8.334;2023-03-01T09:46:19;9.20;;;5.45;;
19059;SDS011;9663;48.996;8.334;2023-03-01T09:48:50;9.68;;;5.35;;
19059;SDS011;9663;48.996;8.334;2023-03-01T09:51:27;9.18;;;5.53;;
19059;SDS011;9663;48.996;8.334;2023-03-01T09:53:57;8.40;;;4.50;;
19059;SDS011;9663;48.996;8.334;2023-03-01T09:56:40;10.18;;;5.60;;
19059;SDS011;9663;48.996;8.334;2023-03-01T09:59:40;8.00;;;4.95;;
19059;SDS011;9663;48.996;8.334;2023-03-01T10:10:39;10.02;;;5.63;;
19059;SDS011;9663;48.996;8.334;2023-03-01T10:16:43;11.57;;;6.43;;
19059;SDS011;9663;48.996;8.334;2023-03-01T10:19:18;10.95;;;6.30;;
19059;SDS011;9663;48.996;8.334;2023-03-01T10:21:57;9.70;;;6.43;;
19059;SDS011;9663;48.996;8.334;2023-03-01T10:24:31;9.93;;;6.13;;
19059;SDS011;9663;48.996;8.334;2023-03-01T10:27:23;13.90;;;7.07;;
19059;SDS011;9663;48.996;8.334;2023-03-01T10:32:46;9.65;;;6.20;;
19059;SDS011;9663;48.996;8.334;2023-03-01T10:35:17;9.20;;;5.40;;
19059;SDS011;9663;48.996;8.334;2023-03-01T10:40:33;11.68;;;6.07;;
19059;SDS011;9663;48.996;8.334;2023-03-01T10:43:02;9.30;;;5.80;;
19059;SDS011;9663;48.996;8.334;2023-03-01T10:45:38;9.82;;;5.55;;
19059;SDS011;9663;48.996;8.334;2023-03-01T10:48:14;8.85;;;5.72;;
19059;SDS011;9663;48.996;8.334;2023-03-01T10:50:41;9.95;;;5.80;;
19059;SDS011;9663;48.996;8.334;2023-03-01T10:53:23;10.10;;;5.78;;
19059;SDS011;9663;48.996;8.334;2023-03-01T10:55:58;10.82;;;5.90;;
19059;SDS011;9663;48.996;8.334;2023-03-01T11:01:33;10.68;;;6.50;;
19059;SDS011;9663;48.996;8.334;2023-03-01T11:06:32;11.05;;;6.40;;
19059;SDS011;9663;48.996;8.334;2023-03-01T11:11:45;10.30;;;6.65;;
19059;SDS011;9663;48.996;8.334;2023-03-01T11:14:21;9.05;;;5.43;;
19059;SDS011;9663;48.996;8.334;2023-03-01T11:17:05;12.48;;;6.72;;
19059;SDS011;9663;48.996;8.334;2023-03-01T11:22:52;8.70;;;5.18;;
19059;SDS011;9663;48.996;8.334;2023-03-01T11:25:33;8.70;;;5.18;;
19059;SDS011;9663;48.996;8.334;2023-03-01T11:28:05;11.15;;;5.65;;
19059;SDS011;9663;48.996;8.334;2023-03-01T11:36:30;8.27;;;4.95;;
19059;SDS011;9663;48.996;8.334;2023-03-01T11:42:13;9.55;;;5.47;;
19059;SDS011;9663;48.996;8.334;2023-03-01T11:44:50;10.10;;;5.53;;
19059;SDS011;9663;48.996;8.334;2023-03-01T11:59:03;7.85;;;5.20;;
19059;SDS011;9663;48.996;8.334;2023-03-01T12:08:06;8.95;;;5.15;;
19059;SDS011;9663;48.996;8.334;2023-03-01T12:19:27;8.60;;;5.40;;
19059;SDS011;9663;48.996;8.334;2023-03-01T12:22:38;7.88;;;5.00;;
19059;SDS011;9663;48.996;8.334;2023-03-01T12:25:55;7.88;;;4.88;;
19059;SDS011;9663;48.996;8.334;2023-03-01T12:31:16;7.95;;;4.95;;
19059;SDS011;9663;48.996;8.334;2023-03-01T12:37:21;6.57;;;4.35;;
19059;SDS011;9663;48.996;8.334;2023-03-01T12:51:28;8.25;;;4.95;;
19059;SDS011;9663;48.996;8.334;2023-03-01T12:53:58;8.07;;;5.28;;
19059;SDS011;9663;48.996;8.334;2023-03-01T12:56:31;8.02;;;4.55;;
19059;SDS011;9663;48.996;8.334;2023-03-01T13:01:52;7.40;;;4.75;;
19059;SDS011;9663;48.996;8.334;2023-03-01T13:04:31;7.60;;;4.90;;
19059;SDS011;9663;48.996;8.334;2023-03-01T13:07:29;7.45;;;4.97;;
19059;SDS011;9663;48.996;8.334;2023-03-01T13:17:49;7.38;;;4.70;;
19059;SDS011;9663;48.996;8.334;2023-03-01T13:26:02;7.70;;;4.75;;
19059;SDS011;9663;48.996;8.334;2023-03-01T13:31:10;7.55;;;4.82;;
19059;SDS011;9663;48.996;8.334;2023-03-01T13:34:00;7.43;;;4.72;;
19059;SDS011;9663;48.996;8.334;2023-03-01T13:44:13;7.32;;;4.70;;
19059;SDS011;9663;48.996;8.334;2023-03-01T13:46:43;7.72;;;4.80;;
19059;SDS011;9663;48.996;8.334;2023-03-01T13:49:11;8.20;;;5.05;;
19059;SDS011;9663;48.996;8.334;2023-03-01T13:51:42;7.82;;;5.07;;
19059;SDS011;9663;48.996;8.334;2023-03-01T13:54:14;9.15;;;5.20;;
19059;SDS011;9663;48.996;8.334;2023-03-01T13:56:42;8.93;;;5.15;;
19059;SDS011;9663;48.996;8.334;2023-03-01T13:59:17;8.20;;;5.40;;
19059;SDS011;9663;48.996;8.334;2023-03-01T14:01:51;9.75;;;6.18;;
19059;SDS011;9663;48.996;8.334;2023-03-01T14:04:32;7.88;;;5.63;;
19059;SDS011;9663;48.996;8.334;2023-03-01T14:10:01;8.30;;;5.78;;
19059;SDS011;9663;48.996;8.334;2023-03-01T14:15:29;8.15;;;5.82;;
19059;SDS011;9663;48.996;8.334;2023-03-01T14:18:05;9.38;;;5.80;;
19059;SDS011;9663;48.996;8.334;2023-03-01T14:20:51;8.10;;;5.00;;
19059;SDS011;9663;48.996;8.334;2023-03-01T14:23:18;8.07;;;4.65;;
19059;SDS011;9663;48.996;8.334;2023-03-01T14:25:47;11.15;;;5.55;;
19059;SDS011;9663;48.996;8.334;2023-03-01T14:28:17;8.90;;;5.57;;
19059;SDS011;9663;48.996;8.334;2023-03-01T14:30:58;9.30;;;5.55;;
19059;SDS011;9663;48.996;8.334;2023-03-01T14:33:43;8.48;;;5.22;;
19059;SDS011;9663;48.996;8.334;2023-03-01T14:36:25;7.65;;;4.68;;
19059;SDS011;9663;48.996;8.334;2023-03-01T14:38:54;7.95;;;4.88;;
19059;SDS011;9663;48.996;8.334;2023-03-01T14:41:20;8.80;;;5.60;;
19059;SDS011;9663;48.996;8.334;2023-03-01T14:43:51;7.97;;;5.25;;
19059;SDS011;9663;48.996;8.334;2023-03-01T14:46:24;6.85;;;4.68;;
19059;SDS011;9663;48.996;8.334;2023-03-01T14:49:00;7.97;;;5.05;;
19059;SDS011;9663;48.996;8.334;2023-03-01T14:52:03;7.00;;;4.43;;
19059;SDS011;9663;48.996;8.334;2023-03-01T14:54:42;7.85;;;4.53;;
19059;SDS011;9663;48.996;8.334;2023-03-01T14:57:15;7.63;;;4.53;;
19059;SDS011;9663;48.996;8.334;2023-03-01T14:59:46;7.32;;;4.63;;
19059;SDS011;9663;48.996;8.334;2023-03-01T15:02:16;8.32;;;5.22;;
19059;SDS011;9663;48.996;8.334;2023-03-01T15:04:54;8.55;;;4.80;;
19059;SDS011;9663;48.996;8.334;2023-03-01T15:07:33;6.75;;;4.57;;
19059;SDS011;9663;48.996;8.334;2023-03-01T15:10:04;7.55;;;4.85;;
19059;SDS011;9663;48.996;8.334;2023-03-01T15:12:40;7.55;;;5.25;;
19059;SDS011;9663;48.996;8.334;2023-03-01T15:15:19;6.97;;;4.63;;
19059;SDS011;9663;48.996;8.334;2023-03-01T15:17:58;6.88;;;4.45;;
19059;SDS011;9663;48.996;8.334;2023-03-01T15:20:28;7.90;;;4.65;;
19059;SDS011;9663;48.996;8.334;2023-03-01T15:22:57;8.35;;;4.93;;
19059;SDS011;9663;48.996;8.334;2023-03-01T15:25:25;7.40;;;4.57;;
19059;SDS011;9663;48.996;8.334;2023-03-01T15:27:55;6.75;;;4.40;;
19059;SDS011;9663;48.996;8.334;2023-03-01T15:30:25;7.18;;;4.40;;
19059;SDS011;9663;48.996;8.334;2023-03-01T15:35:48;7.07;;;4.32;;
19059;SDS011;9663;48.996;8.334;2023-03-01T15:41:23;8.50;;;5.28;;
19059;SDS011;9663;48.996;8.334;2023-03-01T15:47:08;6.95;;;4.13;;
19059;SDS011;9663;48.996;8.334;2023-03-01T15:49:55;6.72;;;4.32;;
19059;SDS011;9663;48.996;8.334;2023-03-01T15:52:28;9.23;;;5.50;;
19059;SDS011;9663;48.996;8.334;2023-03-01T15:55:05;8.02;;;4.70;;
19059;SDS011;9663;48.996;8.334;2023-03-01T15:57:41;7.25;;;4.50;;
19059;SDS011;9663;48.996;8.334;2023-03-01T16:00:11;8.13;;;5.00;;
19059;SDS011;9663;48.996;8.334;2023-03-01T16:02:38;8.52;;;4.47;;
19059;SDS011;9663;48.996;8.334;2023-03-01T16:05:06;7.75;;;5.13;;
19059;SDS011;9663;48.996;8.334;2023-03-01T16:07:47;7.00;;;4.55;;
19059;SDS011;9663;48.996;8.334;2023-03-01T16:10:14;7.75;;;5.20;;
19059;SDS011;9663;48.996;8.334;2023-03-01T16:12:41;8.57;;;5.40;;
19059;SDS011;9663;48.996;8.334;2023-03-01T16:17:49;8.38;;;4.88;;
19059;SDS011;9663;48.996;8.334;2023-03-01T16:20:17;7.90;;;4.45;;
19059;SDS011;9663;48.996;8.334;2023-03-01T16:22:43;7.90;;;4.68;;
19059;SDS011;9663;48.996;8.334;2023-03-01T16:25:11;7.72;;;4.57;;
19059;SDS011;9663;48.996;8.334;2023-03-01T16:27:42;8.40;;;4.90;;
19059;SDS011;9663;48.996;8.334;2023-03-01T16:30:09;7.60;;;5.10;;
19059;SDS011;9663;48.996;8.334;2023-03-01T16:32:41;7.75;;;4.68;;
19059;SDS011;9663;48.996;8.334;2023-03-01T16:35:09;7.18;;;4.57;;
19059;SDS011;9663;48.996;8.334;2023-03-01T16:37:37;8.60;;;4.93;;
19059;SDS011;9663;48.996;8.334;2023-03-01T16:40:04;9.57;;;5.15;;
19059;SDS011;9663;48.996;8.334;2023-03-01T16:42:40;7.35;;;4.47;;
19059;SDS011;9663;48.996;8.334;2023-03-01T16:45:07;7.57;;;4.90;;
19059;SDS011;9663;48.996;8.334;2023-03-01T16:47:34;7.50;;;4.20;;
19059;SDS011;9663;48.996;8.334;2023-03-01T16:50:00;9.15;;;5.32;;
19059;SDS011;9663;48.996;8.334;2023-03-01T16:52:26;7.43;;;4.22;;
19059;SDS011;9663;48.996;8.334;2023-03-01T16:54:52;7.47;;;4.50;;
19059;SDS011;9663;48.996;8.334;2023-03-01T16:57:19;8.18;;;4.53;;
19059;SDS011;9663;48.996;8.334;2023-03-01T16:59:44;8.43;;;4.68;;
19059;SDS011;9663;48.996;8.334;2023-03-01T17:02:11;9.13;;;5.40;;
19059;SDS011;9663;48.996;8.334;2023-03-01T17:04:39;7.97;;;4.45;;
19059;SDS011;9663;48.996;8.334;2023-03-01T17:07:05;8.88;;;4.03;;
19059;SDS011;9663;48.996;8.334;2023-03-01T17:09:34;7.30;;;4.20;;
19059;SDS011;9663;48.996;8.334;2023-03-01T17:12:02;7.38;;;4.25;;
19059;SDS011;9663;48.996;8.334;2023-03-01T17:14:29;8.05;;;4.13;;
19059;SDS011;9663;48.996;8.334;2023-03-01T17:16:55;7.82;;;4.03;;
19059;SDS011;9663;48.996;8.334;2023-03-01T17:19:21;7.78;;;4.10;;
19059;SDS011;9663;48.996;8.334;2023-03-01T17:21:46;8.63;;;4.45;;
19059;SDS011;9663;48.996;8.334;2023-03-01T17:24:12;7.60;;;4.40;;
19059;SDS011;9663;48.996;8.334;2023-03-01T17:26:38;8.50;;;4.65;;
19059;SDS011;9663;48.996;8.334;2023-03-01T17:29:04;8.82;;;4.60;;
19059;SDS011;9663;48.996;8.334;2023-03-01T17:31:31;8.30;;;4.57;;
19059;SDS011;9663;48.996;8.334;2023-03-01T17:33:57;7.85;;;4.00;;
19059;SDS011;9663;48.996;8.334;2023-03-01T17:36:23;8.73;;;4.50;;
19059;SDS011;9663;48.996;8.334;2023-03-01T17:38:50;9.07;;;4.53;;
19059;SDS011;9663;48.996;8.334;2023-03-01T17:41:16;7.80;;;3.75;;
19059;SDS011;9663;48.996;8.334;2023-03-01T17:43:46;8.93;;;4.20;;